sensor_id;sensor_type;location;lat;lon;timestamp;P1;durP1;ratioP1;P2;durP2;ratioP2
27201;SDS011;14717;46.924;15.474;2022-07-01T00:00:00;12.70;;;10.05;;
27201;SDS011;14717;46.924;15.474;2022-07-01T00:02:26;14.90;;;10.93;;
27201;SDS011;14717;46.924;15.474;2022-07-01T00:04:51;16.67;;;10.48;;
27201;SDS011;14717;46.924;15.474;2022-07-01T00:07:17;15.07;;;10.80;;
27201;SDS011;14717;46.924;15.474;2022-07-01T00:09:42;15.15;;;11.30;;
27201;SDS011;14717;46.924;15.474;2022-07-01T00:12:08;15.20;;;10.65;;
27201;SDS011;14717;46.924;15.474;2022-07-01T00:14:34;11.85;;;9.68;;
27201;SDS011;14717;46.924;15.474;2022-07-01T00:16:59;14.10;;;10.27;;
27201;SDS011;14717;46.924;15.474;2022-07-01T00:19:25;16.33;;;11.25;;
27201;SDS011;14717;46.924;15.474;2022-07-01T00:21:50;14.25;;;11.02;;
27201;SDS011;14717;46.924;15.474;2022-07-01T00:24:16;17.52;;;10.27;;
27201;SDS011;14717;46.924;15.474;2022-07-01T00:26:42;13.95;;;11.20;;
27201;SDS011;14717;46.924;15.474;2022-07-01T00:29:07;16.08;;;11.05;;
27201;SDS011;14717;46.924;15.474;2022-07-01T00:31:33;15.43;;;10.95;;
27201;SDS011;14717;46.924;15.474;2022-07-01T00:33:58;14.77;;;10.88;;
27201;SDS011;14717;46.924;15.474;2022-07-01T00:36:24;14.07;;;10.95;;
27201;SDS011;14717;46.924;15.474;2022-07-01T00:38:49;12.57;;;10.68;;
27201;SDS011;14717;46.924;15.474;2022-07-01T00:41:14;17.42;;;10.25;;
27201;SDS011;14717;46.924;15.474;2022-07-01T00:43:41;13.73;;;10.98;;
27201;SDS011;14717;46.924;15.474;2022-07-01T00:46:06;13.80;;;10.60;;
27201;SDS011;14717;46.924;15.474;2022-07-01T00:48:32;14.65;;;10.68;;
27201;SDS011;14717;46.924;15.474;2022-07-01T00:50:59;14.63;;;10.77;;
27201;SDS011;14717;46.924;15.474;2022-07-01T00:53:25;13.07;;;10.40;;
27201;SDS011;14717;46.924;15.474;2022-07-01T00:55:51;14.02;;;10.98;;
27201;SDS011;14717;46.924;15.474;2022-07-01T00:58:17;14.90;;;10.10;;
27201;SDS011;14717;46.924;15.474;2022-07-01T01:00:42;15.68;;;10.98;;
27201;SDS011;14717;46.924;15.474;2022-07-01T01:03:08;19.15;;;10.90;;
27201;SDS011;14717;46.924;15.474;2022-07-01T01:05:36;13.98;;;9.63;;
27201;SDS011;14717;46.924;15.474;2022-07-01T01:08:02;16.27;;;11.57;;
27201;SDS011;14717;46.924;15.474;2022-07-01T01:10:28;17.70;;;11.13;;
27201;SDS011;14717;46.924;15.474;2022-07-01T01:12:55;14.60;;;10.82;;
27201;SDS011;14717;46.924;15.474;2022-07-01T01:15:22;16.38;;;10.50;;
27201;SDS011;14717;46.924;15.474;2022-07-01T01:17:47;14.82;;;10.18;;
27201;SDS011;14717;46.924;15.474;2022-07-01T01:20:16;15.27;;;10.60;;
27201;SDS011;14717;46.924;15.474;2022-07-01T01:22:46;16.10;;;10.90;;
27201;SDS011;14717;46.924;15.474;2022-07-01T01:25:12;17.48;;;11.13;;
27201;SDS011;14717;46.924;15.474;2022-07-01T01:27:37;14.13;;;11.15;;
27201;SDS011;14717;46.924;15.474;2022-07-01T01:30:06;17.92;;;10.65;;
27201;SDS011;14717;46.924;15.474;2022-07-01T01:32:33;14.55;;;9.95;;
27201;SDS011;14717;46.924;15.474;2022-07-01T01:34:59;15.90;;;10.85;;
27201;SDS011;14717;46.924;15.474;2022-07-01T01:37:25;14.85;;;10.50;;
27201;SDS011;14717;46.924;15.474;2022-07-01T01:39:52;17.25;;;10.45;;
27201;SDS011;14717;46.924;15.474;2022-07-01T01:42:18;14.10;;;10.27;;
27201;SDS011;14717;46.924;15.474;2022-07-01T01:44:43;14.00;;;10.48;;
27201;SDS011;14717;46.924;15.474;2022-07-01T01:47:08;17.38;;;10.68;;
27201;SDS011;14717;46.924;15.474;2022-07-01T01:49:34;16.73;;;10.82;;
27201;SDS011;14717;46.924;15.474;2022-07-01T01:51:59;15.27;;;10.48;;
27201;SDS011;14717;46.924;15.474;2022-07-01T01:54:26;14.20;;;11.02;;
27201;SDS011;14717;46.924;15.474;2022-07-01T01:56:52;15.80;;;11.00;;
27201;SDS011;14717;46.924;15.474;2022-07-01T01:59:17;16.23;;;10.32;;
27201;SDS011;14717;46.924;15.474;2022-07-01T02:01:43;15.27;;;10.77;;
27201;SDS011;14717;46.924;15.474;2022-07-01T02:04:09;14.35;;;10.13;;
27201;SDS011;14717;46.924;15.474;2022-07-01T02:06:34;17.50;;;11.27;;
27201;SDS011;14717;46.924;15.474;2022-07-01T02:08:59;16.88;;;10.75;;
27201;SDS011;14717;46.924;15.474;2022-07-01T02:11:25;12.32;;;9.85;;
27201;SDS011;14717;46.924;15.474;2022-07-01T02:13:51;18.15;;;11.20;;
27201;SDS011;14717;46.924;15.474;2022-07-01T02:16:16;14.85;;;10.95;;
27201;SDS011;14717;46.924;15.474;2022-07-01T02:18:42;15.45;;;11.30;;
27201;SDS011;14717;46.924;15.474;2022-07-01T02:21:07;13.93;;;10.63;;
27201;SDS011;14717;46.924;15.474;2022-07-01T02:23:32;16.15;;;10.35;;
27201;SDS011;14717;46.924;15.474;2022-07-01T02:25:58;13.25;;;11.02;;
27201;SDS011;14717;46.924;15.474;2022-07-01T02:28:23;16.15;;;10.75;;
27201;SDS011;14717;46.924;15.474;2022-07-01T02:30:49;14.77;;;10.80;;
27201;SDS011;14717;46.924;15.474;2022-07-01T02:33:14;14.15;;;10.32;;
27201;SDS011;14717;46.924;15.474;2022-07-01T02:35:40;15.57;;;10.70;;
27201;SDS011;14717;46.924;15.474;2022-07-01T02:38:07;13.00;;;9.95;;
27201;SDS011;14717;46.924;15.474;2022-07-01T02:40:35;16.38;;;10.75;;
27201;SDS011;14717;46.924;15.474;2022-07-01T02:43:05;16.67;;;10.13;;
27201;SDS011;14717;46.924;15.474;2022-07-01T02:45:31;12.50;;;9.50;;
27201;SDS011;14717;46.924;15.474;2022-07-01T02:47:57;18.50;;;11.38;;
27201;SDS011;14717;46.924;15.474;2022-07-01T02:50:22;13.50;;;10.60;;
27201;SDS011;14717;46.924;15.474;2022-07-01T02:52:47;13.10;;;10.35;;
27201;SDS011;14717;46.924;15.474;2022-07-01T02:55:13;15.48;;;10.73;;
27201;SDS011;14717;46.924;15.474;2022-07-01T02:57:39;13.77;;;10.52;;
27201;SDS011;14717;46.924;15.474;2022-07-01T03:00:10;16.63;;;10.70;;
27201;SDS011;14717;46.924;15.474;2022-07-01T03:02:37;14.90;;;10.90;;
27201;SDS011;14717;46.924;15.474;2022-07-01T03:05:03;14.68;;;11.38;;
27201;SDS011;14717;46.924;15.474;2022-07-01T03:07:29;15.95;;;11.82;;
27201;SDS011;14717;46.924;15.474;2022-07-01T03:09:55;13.95;;;10.80;;
27201;SDS011;14717;46.924;15.474;2022-07-01T03:12:20;16.73;;;10.65;;
27201;SDS011;14717;46.924;15.474;2022-07-01T03:15:09;17.30;;;11.30;;
27201;SDS011;14717;46.924;15.474;2022-07-01T03:17:36;15.43;;;10.77;;
27201;SDS011;14717;46.924;15.474;2022-07-01T03:20:03;15.00;;;11.00;;
27201;SDS011;14717;46.924;15.474;2022-07-01T03:22:30;15.57;;;11.70;;
27201;SDS011;14717;46.924;15.474;2022-07-01T03:24:56;15.35;;;10.48;;
27201;SDS011;14717;46.924;15.474;2022-07-01T03:27:23;15.00;;;10.93;;
27201;SDS011;14717;46.924;15.474;2022-07-01T03:29:49;14.63;;;11.02;;
27201;SDS011;14717;46.924;15.474;2022-07-01T03:32:15;16.63;;;11.70;;
27201;SDS011;14717;46.924;15.474;2022-07-01T03:34:42;17.10;;;10.57;;
27201;SDS011;14717;46.924;15.474;2022-07-01T03:37:09;12.57;;;10.52;;
27201;SDS011;14717;46.924;15.474;2022-07-01T03:39:36;19.20;;;11.10;;
27201;SDS011;14717;46.924;15.474;2022-07-01T03:42:02;16.35;;;10.65;;
27201;SDS011;14717;46.924;15.474;2022-07-01T03:44:30;18.08;;;11.98;;
27201;SDS011;14717;46.924;15.474;2022-07-01T03:46:55;13.35;;;10.50;;
27201;SDS011;14717;46.924;15.474;2022-07-01T03:49:21;14.70;;;10.18;;
27201;SDS011;14717;46.924;15.474;2022-07-01T03:51:47;16.35;;;11.25;;
27201;SDS011;14717;46.924;15.474;2022-07-01T03:54:13;18.05;;;11.40;;
27201;SDS011;14717;46.924;15.474;2022-07-01T03:56:57;18.42;;;12.52;;
27201;SDS011;14717;46.924;15.474;2022-07-01T03:59:28;15.95;;;10.77;;
27201;SDS011;14717;46.924;15.474;2022-07-01T04:01:55;17.02;;;10.77;;
27201;SDS011;14717;46.924;15.474;2022-07-01T04:04:21;17.05;;;11.00;;
27201;SDS011;14717;46.924;15.474;2022-07-01T04:06:47;16.17;;;10.98;;
27201;SDS011;14717;46.924;15.474;2022-07-01T04:09:14;15.90;;;11.88;;
27201;SDS011;14717;46.924;15.474;2022-07-01T04:11:41;15.68;;;11.43;;
27201;SDS011;14717;46.924;15.474;2022-07-01T04:14:08;18.38;;;11.02;;
27201;SDS011;14717;46.924;15.474;2022-07-01T04:16:34;14.55;;;11.20;;
27201;SDS011;14717;46.924;15.474;2022-07-01T04:19:00;18.30;;;11.75;;
27201;SDS011;14717;46.924;15.474;2022-07-01T04:21:25;17.42;;;11.38;;
27201;SDS011;14717;46.924;15.474;2022-07-01T04:24:09;16.42;;;11.45;;
27201;SDS011;14717;46.924;15.474;2022-07-01T04:26:35;17.73;;;11.23;;
27201;SDS011;14717;46.924;15.474;2022-07-01T04:29:00;20.10;;;11.70;;
27201;SDS011;14717;46.924;15.474;2022-07-01T04:31:26;15.15;;;11.20;;
27201;SDS011;14717;46.924;15.474;2022-07-01T04:33:51;20.65;;;11.27;;
27201;SDS011;14717;46.924;15.474;2022-07-01T04:36:17;15.40;;;11.15;;
27201;SDS011;14717;46.924;15.474;2022-07-01T04:38:43;18.70;;;11.73;;
27201;SDS011;14717;46.924;15.474;2022-07-01T04:41:08;14.43;;;10.88;;
27201;SDS011;14717;46.924;15.474;2022-07-01T04:43:52;16.25;;;11.73;;
27201;SDS011;14717;46.924;15.474;2022-07-01T04:46:18;20.15;;;12.50;;
27201;SDS011;14717;46.924;15.474;2022-07-01T04:48:43;15.27;;;11.55;;
27201;SDS011;14717;46.924;15.474;2022-07-01T04:51:09;16.27;;;11.57;;
27201;SDS011;14717;46.924;15.474;2022-07-01T04:53:34;18.30;;;11.98;;
27201;SDS011;14717;46.924;15.474;2022-07-01T04:56:00;15.68;;;11.63;;
27201;SDS011;14717;46.924;15.474;2022-07-01T04:58:25;16.40;;;11.40;;
27201;SDS011;14717;46.924;15.474;2022-07-01T05:00:51;19.35;;;11.65;;
27201;SDS011;14717;46.924;15.474;2022-07-01T05:03:17;17.90;;;11.98;;
27201;SDS011;14717;46.924;15.474;2022-07-01T05:05:43;17.23;;;12.10;;
27201;SDS011;14717;46.924;15.474;2022-07-01T05:08:08;20.35;;;11.80;;
27201;SDS011;14717;46.924;15.474;2022-07-01T05:10:33;15.55;;;11.32;;
27201;SDS011;14717;46.924;15.474;2022-07-01T05:12:59;19.25;;;12.45;;
27201;SDS011;14717;46.924;15.474;2022-07-01T05:15:24;18.83;;;11.20;;
27201;SDS011;14717;46.924;15.474;2022-07-01T05:17:50;18.25;;;12.50;;
27201;SDS011;14717;46.924;15.474;2022-07-01T05:20:34;17.15;;;12.43;;
27201;SDS011;14717;46.924;15.474;2022-07-01T05:23:17;17.90;;;12.35;;
27201;SDS011;14717;46.924;15.474;2022-07-01T05:25:43;19.30;;;11.90;;
27201;SDS011;14717;46.924;15.474;2022-07-01T05:28:08;16.98;;;12.15;;
27201;SDS011;14717;46.924;15.474;2022-07-01T05:30:33;17.58;;;11.68;;
27201;SDS011;14717;46.924;15.474;2022-07-01T05:32:59;15.73;;;12.05;;
27201;SDS011;14717;46.924;15.474;2022-07-01T05:35:24;18.73;;;12.35;;
27201;SDS011;14717;46.924;15.474;2022-07-01T05:37:50;16.33;;;11.98;;
27201;SDS011;14717;46.924;15.474;2022-07-01T05:40:15;18.45;;;11.05;;
27201;SDS011;14717;46.924;15.474;2022-07-01T05:42:40;16.63;;;12.55;;
27201;SDS011;14717;46.924;15.474;2022-07-01T05:45:06;22.42;;;12.82;;
27201;SDS011;14717;46.924;15.474;2022-07-01T05:47:31;16.40;;;11.82;;
27201;SDS011;14717;46.924;15.474;2022-07-01T05:49:57;17.45;;;12.43;;
27201;SDS011;14717;46.924;15.474;2022-07-01T05:52:22;16.40;;;12.13;;
27201;SDS011;14717;46.924;15.474;2022-07-01T05:54:48;19.55;;;13.13;;
27201;SDS011;14717;46.924;15.474;2022-07-01T05:57:13;19.27;;;12.85;;
27201;SDS011;14717;46.924;15.474;2022-07-01T05:59:38;16.80;;;12.05;;
27201;SDS011;14717;46.924;15.474;2022-07-01T06:02:04;18.63;;;12.77;;
27201;SDS011;14717;46.924;15.474;2022-07-01T06:04:29;20.10;;;11.48;;
27201;SDS011;14717;46.924;15.474;2022-07-01T06:06:55;15.40;;;11.02;;
27201;SDS011;14717;46.924;15.474;2022-07-01T06:09:20;18.92;;;11.77;;
27201;SDS011;14717;46.924;15.474;2022-07-01T06:11:45;16.58;;;12.18;;
27201;SDS011;14717;46.924;15.474;2022-07-01T06:14:11;17.55;;;12.35;;
27201;SDS011;14717;46.924;15.474;2022-07-01T06:16:36;16.75;;;12.40;;
27201;SDS011;14717;46.924;15.474;2022-07-01T06:19:03;16.65;;;11.50;;
27201;SDS011;14717;46.924;15.474;2022-07-01T06:21:29;19.02;;;12.80;;
27201;SDS011;14717;46.924;15.474;2022-07-01T06:23:54;17.33;;;11.77;;
27201;SDS011;14717;46.924;15.474;2022-07-01T06:26:20;18.65;;;12.48;;
27201;SDS011;14717;46.924;15.474;2022-07-01T06:28:45;16.52;;;11.88;;
27201;SDS011;14717;46.924;15.474;2022-07-01T06:31:11;18.02;;;12.77;;
27201;SDS011;14717;46.924;15.474;2022-07-01T06:33:36;20.23;;;11.80;;
27201;SDS011;14717;46.924;15.474;2022-07-01T06:36:02;16.27;;;11.02;;
27201;SDS011;14717;46.924;15.474;2022-07-01T06:38:28;16.17;;;11.77;;
27201;SDS011;14717;46.924;15.474;2022-07-01T06:40:54;15.88;;;11.00;;
27201;SDS011;14717;46.924;15.474;2022-07-01T06:43:38;14.70;;;11.35;;
27201;SDS011;14717;46.924;15.474;2022-07-01T06:46:04;15.32;;;9.68;;
27201;SDS011;14717;46.924;15.474;2022-07-01T06:48:29;17.73;;;10.73;;
27201;SDS011;14717;46.924;15.474;2022-07-01T06:50:55;16.83;;;10.50;;
27201;SDS011;14717;46.924;15.474;2022-07-01T06:53:20;15.80;;;9.57;;
27201;SDS011;14717;46.924;15.474;2022-07-01T06:55:46;14.50;;;9.25;;
27201;SDS011;14717;46.924;15.474;2022-07-01T06:58:11;13.57;;;9.40;;
27201;SDS011;14717;46.924;15.474;2022-07-01T07:00:36;15.48;;;9.40;;
27201;SDS011;14717;46.924;15.474;2022-07-01T07:03:02;13.57;;;9.27;;
27201;SDS011;14717;46.924;15.474;2022-07-01T07:05:28;15.10;;;9.18;;
27201;SDS011;14717;46.924;15.474;2022-07-01T07:07:57;13.63;;;9.25;;
27201;SDS011;14717;46.924;15.474;2022-07-01T07:10:22;15.38;;;8.85;;
27201;SDS011;14717;46.924;15.474;2022-07-01T07:12:48;15.27;;;9.57;;
27201;SDS011;14717;46.924;15.474;2022-07-01T07:15:13;14.18;;;9.48;;
27201;SDS011;14717;46.924;15.474;2022-07-01T07:17:39;14.90;;;9.65;;
27201;SDS011;14717;46.924;15.474;2022-07-01T07:20:04;16.85;;;10.00;;
27201;SDS011;14717;46.924;15.474;2022-07-01T07:22:30;12.15;;;9.13;;
27201;SDS011;14717;46.924;15.474;2022-07-01T07:24:56;12.10;;;8.63;;
27201;SDS011;14717;46.924;15.474;2022-07-01T07:27:21;17.40;;;10.57;;
27201;SDS011;14717;46.924;15.474;2022-07-01T07:32:53;14.23;;;9.15;;
27201;SDS011;14717;46.924;15.474;2022-07-01T07:35:24;15.75;;;9.80;;
27201;SDS011;14717;46.924;15.474;2022-07-01T07:37:52;11.40;;;9.18;;
27201;SDS011;14717;46.924;15.474;2022-07-01T07:40:18;11.88;;;8.02;;
27201;SDS011;14717;46.924;15.474;2022-07-01T07:42:44;10.10;;;7.15;;
27201;SDS011;14717;46.924;15.474;2022-07-01T07:45:19;8.82;;;6.82;;
27201;SDS011;14717;46.924;15.474;2022-07-01T07:47:46;12.30;;;6.65;;
27201;SDS011;14717;46.924;15.474;2022-07-01T07:50:16;10.93;;;6.78;;
27201;SDS011;14717;46.924;15.474;2022-07-01T07:52:56;11.95;;;7.35;;
27201;SDS011;14717;46.924;15.474;2022-07-01T07:55:35;9.73;;;7.43;;
27201;SDS011;14717;46.924;15.474;2022-07-01T07:58:00;11.68;;;6.93;;
27201;SDS011;14717;46.924;15.474;2022-07-01T08:00:29;9.63;;;7.22;;
27201;SDS011;14717;46.924;15.474;2022-07-01T08:02:54;12.18;;;7.20;;
27201;SDS011;14717;46.924;15.474;2022-07-01T08:05:25;10.93;;;8.10;;
27201;SDS011;14717;46.924;15.474;2022-07-01T08:07:53;11.00;;;6.90;;
27201;SDS011;14717;46.924;15.474;2022-07-01T08:10:18;12.98;;;8.55;;
27201;SDS011;14717;46.924;15.474;2022-07-01T08:12:44;11.63;;;7.93;;
27201;SDS011;14717;46.924;15.474;2022-07-01T08:15:12;13.52;;;8.18;;
27201;SDS011;14717;46.924;15.474;2022-07-01T08:17:38;13.75;;;8.75;;
27201;SDS011;14717;46.924;15.474;2022-07-01T08:20:03;10.88;;;8.43;;
27201;SDS011;14717;46.924;15.474;2022-07-01T08:22:29;11.23;;;7.88;;
27201;SDS011;14717;46.924;15.474;2022-07-01T08:24:55;13.55;;;7.80;;
27201;SDS011;14717;46.924;15.474;2022-07-01T08:27:20;11.82;;;7.95;;
27201;SDS011;14717;46.924;15.474;2022-07-01T08:29:46;13.88;;;7.75;;
27201;SDS011;14717;46.924;15.474;2022-07-01T08:32:11;10.30;;;6.40;;
27201;SDS011;14717;46.924;15.474;2022-07-01T08:34:37;10.75;;;7.45;;
27201;SDS011;14717;46.924;15.474;2022-07-01T08:37:03;10.20;;;6.95;;
27201;SDS011;14717;46.924;15.474;2022-07-01T08:39:29;9.48;;;7.00;;
27201;SDS011;14717;46.924;15.474;2022-07-01T08:41:54;12.52;;;7.03;;
27201;SDS011;14717;46.924;15.474;2022-07-01T08:44:20;8.32;;;6.68;;
27201;SDS011;14717;46.924;15.474;2022-07-01T08:46:46;10.88;;;6.47;;
27201;SDS011;14717;46.924;15.474;2022-07-01T08:49:11;9.82;;;6.57;;
27201;SDS011;14717;46.924;15.474;2022-07-01T08:51:41;9.95;;;6.78;;
27201;SDS011;14717;46.924;15.474;2022-07-01T08:54:07;11.07;;;6.55;;
27201;SDS011;14717;46.924;15.474;2022-07-01T08:56:35;10.88;;;6.75;;
27201;SDS011;14717;46.924;15.474;2022-07-01T08:59:06;10.02;;;6.38;;
27201;SDS011;14717;46.924;15.474;2022-07-01T09:01:32;11.77;;;6.85;;
27201;SDS011;14717;46.924;15.474;2022-07-01T09:04:18;12.88;;;6.50;;
27201;SDS011;14717;46.924;15.474;2022-07-01T09:06:47;9.70;;;6.43;;
27201;SDS011;14717;46.924;15.474;2022-07-01T09:11:47;11.30;;;7.13;;
27201;SDS011;14717;46.924;15.474;2022-07-01T09:14:29;11.35;;;6.55;;
27201;SDS011;14717;46.924;15.474;2022-07-01T09:16:57;11.32;;;6.93;;
27201;SDS011;14717;46.924;15.474;2022-07-01T09:19:24;19.10;;;7.53;;
27201;SDS011;14717;46.924;15.474;2022-07-01T09:22:00;11.32;;;6.65;;
27201;SDS011;14717;46.924;15.474;2022-07-01T09:24:30;11.85;;;7.07;;
27201;SDS011;14717;46.924;15.474;2022-07-01T09:27:03;11.18;;;7.40;;
27201;SDS011;14717;46.924;15.474;2022-07-01T09:29:38;9.35;;;6.78;;
27201;SDS011;14717;46.924;15.474;2022-07-01T09:32:06;10.15;;;6.07;;
27201;SDS011;14717;46.924;15.474;2022-07-01T09:34:40;9.98;;;5.95;;
27201;SDS011;14717;46.924;15.474;2022-07-01T09:37:07;8.48;;;6.00;;
27201;SDS011;14717;46.924;15.474;2022-07-01T09:42:15;8.90;;;5.70;;
27201;SDS011;14717;46.924;15.474;2022-07-01T09:45:03;13.18;;;6.05;;
27201;SDS011;14717;46.924;15.474;2022-07-01T09:47:36;8.07;;;5.57;;
27201;SDS011;14717;46.924;15.474;2022-07-01T09:50:04;9.00;;;5.53;;
27201;SDS011;14717;46.924;15.474;2022-07-01T09:52:31;7.63;;;5.80;;
27201;SDS011;14717;46.924;15.474;2022-07-01T09:54:57;9.13;;;5.65;;
27201;SDS011;14717;46.924;15.474;2022-07-01T09:57:22;11.43;;;5.47;;
27201;SDS011;14717;46.924;15.474;2022-07-01T09:59:51;10.25;;;5.63;;
27201;SDS011;14717;46.924;15.474;2022-07-01T10:02:17;9.82;;;5.88;;
27201;SDS011;14717;46.924;15.474;2022-07-01T10:04:51;11.40;;;5.95;;
27201;SDS011;14717;46.924;15.474;2022-07-01T10:09:56;9.20;;;5.00;;
27201;SDS011;14717;46.924;15.474;2022-07-01T10:12:43;10.00;;;5.50;;
27201;SDS011;14717;46.924;15.474;2022-07-01T10:15:15;9.77;;;4.93;;
27201;SDS011;14717;46.924;15.474;2022-07-01T10:17:47;8.57;;;4.57;;
27201;SDS011;14717;46.924;15.474;2022-07-01T10:20:14;8.60;;;4.40;;
27201;SDS011;14717;46.924;15.474;2022-07-01T10:22:42;11.75;;;4.35;;
27201;SDS011;14717;46.924;15.474;2022-07-01T10:30:50;10.32;;;5.05;;
27201;SDS011;14717;46.924;15.474;2022-07-01T10:41:25;9.85;;;4.78;;
27201;SDS011;14717;46.924;15.474;2022-07-01T10:43:55;12.70;;;4.72;;
27201;SDS011;14717;46.924;15.474;2022-07-01T10:49:15;8.07;;;4.32;;
27201;SDS011;14717;46.924;15.474;2022-07-01T10:57:27;8.80;;;4.15;;
27201;SDS011;14717;46.924;15.474;2022-07-01T11:02:25;8.13;;;4.40;;
27201;SDS011;14717;46.924;15.474;2022-07-01T11:04:53;7.13;;;4.65;;
27201;SDS011;14717;46.924;15.474;2022-07-01T11:07:20;8.95;;;4.70;;
27201;SDS011;14717;46.924;15.474;2022-07-01T11:09:49;6.00;;;4.57;;
27201;SDS011;14717;46.924;15.474;2022-07-01T11:12:15;8.77;;;4.53;;
27201;SDS011;14717;46.924;15.474;2022-07-01T11:14:42;6.35;;;4.20;;
27201;SDS011;14717;46.924;15.474;2022-07-01T11:17:08;7.22;;;4.63;;
27201;SDS011;14717;46.924;15.474;2022-07-01T11:19:34;10.00;;;4.35;;
27201;SDS011;14717;46.924;15.474;2022-07-01T11:22:00;11.38;;;4.78;;
27201;SDS011;14717;46.924;15.474;2022-07-01T11:24:28;9.23;;;4.50;;
27201;SDS011;14717;46.924;15.474;2022-07-01T11:27:00;7.53;;;4.47;;
27201;SDS011;14717;46.924;15.474;2022-07-01T11:29:31;7.40;;;4.07;;
27201;SDS011;14717;46.924;15.474;2022-07-01T11:31:57;7.97;;;4.18;;
27201;SDS011;14717;46.924;15.474;2022-07-01T11:34:22;8.55;;;4.30;;
27201;SDS011;14717;46.924;15.474;2022-07-01T11:36:48;11.98;;;4.28;;
27201;SDS011;14717;46.924;15.474;2022-07-01T11:39:32;9.65;;;4.10;;
27201;SDS011;14717;46.924;15.474;2022-07-01T11:42:00;7.95;;;4.00;;
27201;SDS011;14717;46.924;15.474;2022-07-01T11:44:32;8.32;;;3.97;;
27201;SDS011;14717;46.924;15.474;2022-07-01T11:47:04;8.77;;;3.72;;
27201;SDS011;14717;46.924;15.474;2022-07-01T11:49:31;10.85;;;4.43;;
27201;SDS011;14717;46.924;15.474;2022-07-01T11:51:58;11.70;;;4.53;;
27201;SDS011;14717;46.924;15.474;2022-07-01T11:54:38;8.23;;;3.70;;
27201;SDS011;14717;46.924;15.474;2022-07-01T11:57:08;9.60;;;3.92;;
27201;SDS011;14717;46.924;15.474;2022-07-01T11:59:41;10.00;;;3.78;;
27201;SDS011;14717;46.924;15.474;2022-07-01T12:02:08;5.88;;;3.65;;
27201;SDS011;14717;46.924;15.474;2022-07-01T12:04:47;9.00;;;3.67;;
27201;SDS011;14717;46.924;15.474;2022-07-01T12:07:19;6.80;;;3.75;;
27201;SDS011;14717;46.924;15.474;2022-07-01T12:09:58;11.73;;;4.22;;
27201;SDS011;14717;46.924;15.474;2022-07-01T12:12:30;10.07;;;4.50;;
27201;SDS011;14717;46.924;15.474;2022-07-01T12:14:56;7.70;;;3.88;;
27201;SDS011;14717;46.924;15.474;2022-07-01T12:17:30;10.30;;;3.63;;
27201;SDS011;14717;46.924;15.474;2022-07-01T12:19:55;8.85;;;4.22;;
27201;SDS011;14717;46.924;15.474;2022-07-01T12:22:24;10.25;;;3.80;;
27201;SDS011;14717;46.924;15.474;2022-07-01T12:25:09;9.50;;;3.83;;
27201;SDS011;14717;46.924;15.474;2022-07-01T12:27:45;6.13;;;3.60;;
27201;SDS011;14717;46.924;15.474;2022-07-01T12:30:22;7.03;;;3.50;;
27201;SDS011;14717;46.924;15.474;2022-07-01T12:32:49;8.48;;;3.90;;
27201;SDS011;14717;46.924;15.474;2022-07-01T12:35:22;7.45;;;3.40;;
27201;SDS011;14717;46.924;15.474;2022-07-01T12:38:03;5.40;;;3.38;;
27201;SDS011;14717;46.924;15.474;2022-07-01T12:40:33;6.75;;;3.53;;
27201;SDS011;14717;46.924;15.474;2022-07-01T12:45:49;10.15;;;3.65;;
27201;SDS011;14717;46.924;15.474;2022-07-01T12:48:14;8.88;;;3.50;;
27201;SDS011;14717;46.924;15.474;2022-07-01T12:50:40;7.55;;;3.70;;
27201;SDS011;14717;46.924;15.474;2022-07-01T12:53:26;8.35;;;3.92;;
27201;SDS011;14717;46.924;15.474;2022-07-01T12:55:54;8.90;;;3.22;;
27201;SDS011;14717;46.924;15.474;2022-07-01T12:58:25;9.40;;;4.30;;
27201;SDS011;14717;46.924;15.474;2022-07-01T13:01:00;8.07;;;2.90;;
27201;SDS011;14717;46.924;15.474;2022-07-01T13:09:06;6.13;;;3.10;;
27201;SDS011;14717;46.924;15.474;2022-07-01T13:11:40;6.20;;;2.85;;
27201;SDS011;14717;46.924;15.474;2022-07-01T13:14:22;6.57;;;3.20;;
27201;SDS011;14717;46.924;15.474;2022-07-01T13:17:37;7.32;;;3.03;;
27201;SDS011;14717;46.924;15.474;2022-07-01T13:20:11;7.65;;;2.88;;
27201;SDS011;14717;46.924;15.474;2022-07-01T13:23:18;9.27;;;2.88;;
27201;SDS011;14717;46.924;15.474;2022-07-01T13:28:27;4.80;;;2.90;;
27201;SDS011;14717;46.924;15.474;2022-07-01T13:31:05;6.22;;;2.83;;
27201;SDS011;14717;46.924;15.474;2022-07-01T13:33:46;10.23;;;3.17;;
27201;SDS011;14717;46.924;15.474;2022-07-01T13:36:11;7.57;;;3.05;;
27201;SDS011;14717;46.924;15.474;2022-07-01T13:38:39;7.60;;;3.13;;
27201;SDS011;14717;46.924;15.474;2022-07-01T13:41:05;8.20;;;3.35;;
27201;SDS011;14717;46.924;15.474;2022-07-01T13:43:38;10.27;;;3.53;;
27201;SDS011;14717;46.924;15.474;2022-07-01T13:49:27;8.10;;;3.40;;
27201;SDS011;14717;46.924;15.474;2022-07-01T13:51:53;7.57;;;3.42;;
27201;SDS011;14717;46.924;15.474;2022-07-01T13:54:24;6.95;;;3.35;;
27201;SDS011;14717;46.924;15.474;2022-07-01T13:56:57;7.00;;;3.33;;
27201;SDS011;14717;46.924;15.474;2022-07-01T13:59:23;6.00;;;3.05;;
27201;SDS011;14717;46.924;15.474;2022-07-01T14:01:48;8.32;;;3.55;;
27201;SDS011;14717;46.924;15.474;2022-07-01T14:04:14;8.95;;;3.70;;
27201;SDS011;14717;46.924;15.474;2022-07-01T14:06:39;6.65;;;3.42;;
27201;SDS011;14717;46.924;15.474;2022-07-01T14:09:08;6.57;;;3.35;;
27201;SDS011;14717;46.924;15.474;2022-07-01T14:11:36;8.02;;;3.70;;
27201;SDS011;14717;46.924;15.474;2022-07-01T14:14:02;9.00;;;3.95;;
27201;SDS011;14717;46.924;15.474;2022-07-01T14:16:27;9.23;;;4.00;;
27201;SDS011;14717;46.924;15.474;2022-07-01T14:18:57;6.60;;;3.40;;
27201;SDS011;14717;46.924;15.474;2022-07-01T14:24:16;6.47;;;3.90;;
27201;SDS011;14717;46.924;15.474;2022-07-01T14:26:48;8.27;;;4.13;;
27201;SDS011;14717;46.924;15.474;2022-07-01T14:29:16;8.25;;;3.75;;
27201;SDS011;14717;46.924;15.474;2022-07-01T14:31:44;8.98;;;3.92;;
27201;SDS011;14717;46.924;15.474;2022-07-01T14:34:14;6.72;;;3.72;;
27201;SDS011;14717;46.924;15.474;2022-07-01T14:36:39;6.93;;;3.80;;
27201;SDS011;14717;46.924;15.474;2022-07-01T14:39:07;8.60;;;4.15;;
27201;SDS011;14717;46.924;15.474;2022-07-01T14:41:36;6.70;;;3.50;;
27201;SDS011;14717;46.924;15.474;2022-07-01T14:44:02;8.68;;;4.18;;
27201;SDS011;14717;46.924;15.474;2022-07-01T14:46:50;9.75;;;3.90;;
27201;SDS011;14717;46.924;15.474;2022-07-01T14:49:27;7.53;;;3.15;;
27201;SDS011;14717;46.924;15.474;2022-07-01T14:51:53;7.75;;;3.65;;
27201;SDS011;14717;46.924;15.474;2022-07-01T14:54:21;9.57;;;4.10;;
27201;SDS011;14717;46.924;15.474;2022-07-01T14:56:49;7.75;;;3.30;;
27201;SDS011;14717;46.924;15.474;2022-07-01T14:59:14;4.72;;;3.85;;
27201;SDS011;14717;46.924;15.474;2022-07-01T15:01:42;9.27;;;4.18;;
27201;SDS011;14717;46.924;15.474;2022-07-01T15:04:07;7.68;;;3.50;;
27201;SDS011;14717;46.924;15.474;2022-07-01T15:06:33;9.35;;;3.75;;
27201;SDS011;14717;46.924;15.474;2022-07-01T15:09:03;8.63;;;3.72;;
27201;SDS011;14717;46.924;15.474;2022-07-01T15:11:28;7.65;;;3.90;;
27201;SDS011;14717;46.924;15.474;2022-07-01T15:13:59;10.93;;;3.85;;
27201;SDS011;14717;46.924;15.474;2022-07-01T15:16:25;7.97;;;3.67;;